createdAt,value
2023-03-13T00:01:24.218Z,2.40
2023-03-13T00:03:51.895Z,4.65
2023-03-13T00:06:19.646Z,5.57
2023-03-13T00:08:47.830Z,5.57
2023-03-13T00:11:17.486Z,3.38
2023-03-13T00:13:45.273Z,3.75
2023-03-13T00:16:15.253Z,4.10
2023-03-13T00:18:48.164Z,4.47
2023-03-13T00:21:15.886Z,5.90
2023-03-13T00:23:42.883Z,3.42
2023-03-13T00:26:13.474Z,4.25
2023-03-13T00:28:42.050Z,6.30
2023-03-13T00:31:18.109Z,4.10
2023-03-13T00:33:47.734Z,3.67
2023-03-13T00:36:19.288Z,2.78
2023-03-13T00:38:47.131Z,3.08
2023-03-13T00:41:16.791Z,7.03
2023-03-13T00:43:45.261Z,2.45
2023-03-13T00:46:15.093Z,3.42
2023-03-13T00:48:42.396Z,3.88
2023-03-13T00:51:10.226Z,4.07
2023-03-13T00:53:37.642Z,3.35
2023-03-13T00:56:07.836Z,3.83
2023-03-13T00:58:43.735Z,3.22
2023-03-13T01:01:24.170Z,4.53
2023-03-13T01:03:58.747Z,2.90
2023-03-13T01:06:32.834Z,3.78
2023-03-13T01:09:06.077Z,5.53
2023-03-13T01:11:40.183Z,3.78
2023-03-13T01:14:11.000Z,3.92
2023-03-13T01:16:38.799Z,4.60
2023-03-13T01:19:10.582Z,3.15
2023-03-13T01:21:39.673Z,5.78
2023-03-13T01:24:06.987Z,3.25
2023-03-13T01:26:34.305Z,3.28
2023-03-13T01:29:02.028Z,4.45
2023-03-13T01:31:34.498Z,3.05
2023-03-13T01:34:04.149Z,4.18
2023-03-13T01:36:31.279Z,4.57
2023-03-13T01:39:00.998Z,3.58
2023-03-13T01:41:30.251Z,6.07
2023-03-13T01:43:58.258Z,3.58
2023-03-13T01:46:34.895Z,3.75
2023-03-13T01:49:16.630Z,4.47
2023-03-13T01:52:09.088Z,5.45
2023-03-13T01:54:42.534Z,4.50
2023-03-13T01:57:29.869Z,4.25
2023-03-13T02:00:09.101Z,4.20
2023-03-13T02:02:40.301Z,4.82
2023-03-13T02:05:07.886Z,3.85
2023-03-13T02:07:40.763Z,5.45
2023-03-13T02:10:11.167Z,7.35
2023-03-13T02:12:40.087Z,5.03
2023-03-13T02:15:15.339Z,4.47
2023-03-13T02:17:43.408Z,9.07
2023-03-13T02:20:11.576Z,3.95
2023-03-13T02:22:47.835Z,6.28
2023-03-13T02:25:24.094Z,5.65
2023-03-13T02:28:05.628Z,4.47
2023-03-13T02:30:34.098Z,3.63
2023-03-13T02:33:03.188Z,5.75
2023-03-13T02:35:34.385Z,3.42
2023-03-13T02:38:05.539Z,3.42
2023-03-13T02:40:40.737Z,3.33
2023-03-13T02:43:32.955Z,2.97
2023-03-13T02:46:16.249Z,3.70
2023-03-13T02:48:46.055Z,5.15
2023-03-13T02:51:17.665Z,4.22
2023-03-13T02:53:46.488Z,7.50
2023-03-13T02:56:15.770Z,5.90
2023-03-13T02:58:49.730Z,4.10
2023-03-13T03:01:17.686Z,4.68
2023-03-13T03:03:45.155Z,6.05
2023-03-13T03:06:12.122Z,8.30
2023-03-13T03:08:41.640Z,6.25
2023-03-13T03:11:09.062Z,7.43
2023-03-13T03:13:35.947Z,10.95
2023-03-13T03:16:15.755Z,8.63
2023-03-13T03:18:42.707Z,7.03
2023-03-13T03:21:12.586Z,4.78
2023-03-13T03:23:42.874Z,5.13
2023-03-13T03:26:10.316Z,5.43
2023-03-13T03:28:37.357Z,5.85
2023-03-13T03:31:09.973Z,4.10
2023-03-13T03:33:37.700Z,5.97
2023-03-13T03:36:08.085Z,5.30
2023-03-13T03:38:36.431Z,5.00
2023-03-13T03:41:03.530Z,5.00
2023-03-13T03:43:30.383Z,5.97
2023-03-13T03:45:57.496Z,5.60
2023-03-13T03:48:24.538Z,5.88
2023-03-13T03:50:53.379Z,5.00
2023-03-13T03:53:23.181Z,5.07
2023-03-13T03:55:53.212Z,6.43
2023-03-13T03:58:20.158Z,5.07
2023-03-13T04:00:48.551Z,4.35
2023-03-13T04:03:17.117Z,7.82
2023-03-13T04:05:44.617Z,6.10
2023-03-13T04:08:11.848Z,5.50
2023-03-13T04:10:38.900Z,9.48
2023-03-13T04:13:06.285Z,4.38
2023-03-13T04:15:33.310Z,5.95
2023-03-13T04:18:00.326Z,4.85
2023-03-13T04:20:29.173Z,4.50
2023-03-13T04:22:56.506Z,4.93
2023-03-13T04:25:23.998Z,5.75
2023-03-13T04:27:51.329Z,4.30
2023-03-13T04:30:18.920Z,6.85
2023-03-13T04:32:49.200Z,4.80
2023-03-13T04:35:16.524Z,6.15
2023-03-13T04:37:43.758Z,4.75
2023-03-13T04:40:12.995Z,4.75
2023-03-13T04:42:43.980Z,5.30
2023-03-13T04:45:13.187Z,4.38
2023-03-13T04:47:40.297Z,10.10
2023-03-13T04:50:07.499Z,11.85
2023-03-13T04:52:34.568Z,13.98
2023-03-13T04:55:01.497Z,10.68
2023-03-13T04:57:28.573Z,11.35
2023-03-13T04:59:55.685Z,10.38
2023-03-13T05:02:26.851Z,5.70
2023-03-13T05:04:53.648Z,8.95
2023-03-13T05:07:20.680Z,6.10
2023-03-13T05:09:47.672Z,7.90
2023-03-13T05:12:14.552Z,9.20
2023-03-13T05:14:41.334Z,9.73
2023-03-13T05:17:08.049Z,11.07
2023-03-13T05:19:34.981Z,12.65
2023-03-13T05:22:01.999Z,9.18
2023-03-13T05:24:28.887Z,11.77
2023-03-13T05:26:55.632Z,15.05
2023-03-13T05:29:22.609Z,13.13
2023-03-13T05:31:49.405Z,15.45
2023-03-13T05:34:16.285Z,15.98
2023-03-13T05:36:43.146Z,17.90
2023-03-13T05:39:10.075Z,15.55
2023-03-13T05:41:36.991Z,16.17
2023-03-13T05:44:03.777Z,14.23
2023-03-13T05:46:31.164Z,11.98
2023-03-13T05:48:57.986Z,14.60
2023-03-13T05:51:24.780Z,17.83
2023-03-13T05:53:51.551Z,11.05
2023-03-13T05:56:18.362Z,15.50
2023-03-13T05:58:46.250Z,12.35
2023-03-13T06:01:13.998Z,12.20
2023-03-13T06:03:40.892Z,13.00
2023-03-13T06:06:07.998Z,12.27
2023-03-13T06:08:34.842Z,15.75
2023-03-13T06:11:03.559Z,15.20
2023-03-13T06:13:30.460Z,14.50
2023-03-13T06:15:58.701Z,18.80
2023-03-13T06:18:26.241Z,17.58
2023-03-13T06:20:58.412Z,13.80
2023-03-13T06:23:25.360Z,11.48
2023-03-13T06:25:52.218Z,15.95
2023-03-13T06:28:18.975Z,15.73
2023-03-13T06:30:45.673Z,16.60
2023-03-13T06:33:12.585Z,20.77
2023-03-13T06:35:55.945Z,14.23
2023-03-13T06:38:26.886Z,12.95
2023-03-13T06:40:54.260Z,16.83
2023-03-13T06:43:21.471Z,12.85
2023-03-13T06:45:48.593Z,18.10
2023-03-13T06:48:18.690Z,15.10
2023-03-13T06:50:45.395Z,18.73
2023-03-13T06:53:17.639Z,15.02
2023-03-13T06:55:45.305Z,19.88
2023-03-13T06:58:29.039Z,12.20
2023-03-13T07:00:58.588Z,18.58
2023-03-13T07:03:25.540Z,14.93
2023-03-13T07:05:59.760Z,18.35
2023-03-13T07:08:26.925Z,12.70
2023-03-13T07:10:58.133Z,13.27
2023-03-13T07:13:25.826Z,20.10
2023-03-13T07:15:57.786Z,19.48
2023-03-13T07:18:24.627Z,16.08
2023-03-13T07:20:59.735Z,15.48
2023-03-13T07:23:28.987Z,14.13
2023-03-13T07:26:02.272Z,12.23
2023-03-13T07:28:36.321Z,14.73
2023-03-13T07:31:13.063Z,11.68
2023-03-13T07:33:40.725Z,12.82
2023-03-13T07:36:08.489Z,10.02
2023-03-13T07:38:35.632Z,17.85
2023-03-13T07:41:04.769Z,12.20
2023-03-13T07:43:49.416Z,8.63
2023-03-13T07:46:35.725Z,9.60
2023-03-13T07:49:06.696Z,13.05
2023-03-13T07:51:43.532Z,10.40
2023-03-13T07:54:12.103Z,9.90
2023-03-13T07:56:39.830Z,15.13
2023-03-13T07:59:07.174Z,10.45
2023-03-13T08:01:35.266Z,13.15
2023-03-13T08:04:05.925Z,12.88
2023-03-13T08:06:37.653Z,13.48
2023-03-13T08:09:05.709Z,9.20
2023-03-13T08:11:32.923Z,7.53
2023-03-13T08:14:04.631Z,11.05
2023-03-13T08:16:35.147Z,11.35
2023-03-13T08:19:07.152Z,9.57
2023-03-13T08:21:44.208Z,11.95
2023-03-13T08:24:13.330Z,11.05
2023-03-13T08:26:42.661Z,7.72
2023-03-13T08:29:12.789Z,9.20
2023-03-13T08:31:52.956Z,10.20
2023-03-13T08:34:20.561Z,9.70
2023-03-13T08:36:48.080Z,8.15
2023-03-13T08:39:20.273Z,7.88
2023-03-13T08:41:47.805Z,8.27
2023-03-13T08:44:17.641Z,10.32
2023-03-13T08:46:54.474Z,9.23
2023-03-13T08:49:21.489Z,14.93
2023-03-13T08:51:51.902Z,9.35
2023-03-13T08:54:22.256Z,13.45
2023-03-13T08:56:49.365Z,8.05
2023-03-13T08:59:16.722Z,10.93
2023-03-13T09:01:43.848Z,7.72
2023-03-13T09:04:10.660Z,6.18
2023-03-13T09:06:39.182Z,6.50
2023-03-13T09:09:07.607Z,6.05
2023-03-13T09:11:36.097Z,3.80
2023-03-13T09:14:03.178Z,4.85
2023-03-13T09:16:32.048Z,7.28
2023-03-13T09:19:03.016Z,5.28
2023-03-13T09:21:35.685Z,6.90
2023-03-13T09:26:42.706Z,4.38
2023-03-13T09:29:15.189Z,7.55
2023-03-13T09:31:42.434Z,13.60
2023-03-13T09:36:51.630Z,8.20
2023-03-13T09:39:18.835Z,5.65
2023-03-13T09:42:08.788Z,6.80
2023-03-13T09:44:55.581Z,3.72
2023-03-13T09:47:47.367Z,3.90
2023-03-13T09:50:33.214Z,4.40
2023-03-13T09:53:26.159Z,6.05
2023-03-13T09:55:54.179Z,5.80
2023-03-13T09:58:28.440Z,4.85
2023-03-13T10:00:58.581Z,6.15
2023-03-13T10:03:39.298Z,4.88
2023-03-13T10:06:27.042Z,3.70
2023-03-13T10:08:56.613Z,3.17
2023-03-13T10:11:55.072Z,7.18
2023-03-13T10:14:24.806Z,3.13
2023-03-13T10:17:10.329Z,3.53
2023-03-13T10:19:43.623Z,3.00
2023-03-13T10:22:19.383Z,3.25
2023-03-13T10:25:18.674Z,8.23
2023-03-13T10:27:53.893Z,4.53
2023-03-13T10:33:20.558Z,5.32
2023-03-13T10:36:04.901Z,5.70
2023-03-13T10:38:35.627Z,4.40
2023-03-13T10:41:10.805Z,2.97
2023-03-13T10:43:51.124Z,3.65
2023-03-13T10:46:31.848Z,5.80
2023-03-13T10:49:04.352Z,6.32
2023-03-13T10:51:39.936Z,4.93
2023-03-13T10:54:37.652Z,3.95
2023-03-13T10:57:19.634Z,4.32
2023-03-13T10:59:49.446Z,2.50
2023-03-13T11:02:27.376Z,3.10
2023-03-13T11:04:56.545Z,5.13
2023-03-13T11:07:33.764Z,5.03
2023-03-13T11:10:26.659Z,4.60
2023-03-13T11:12:55.993Z,3.75
2023-03-13T11:15:45.592Z,3.17
2023-03-13T11:18:21.792Z,4.47
2023-03-13T11:20:49.682Z,7.47
2023-03-13T11:23:23.068Z,10.32
2023-03-13T11:26:14.880Z,11.65
2023-03-13T11:28:59.574Z,5.60
2023-03-13T11:32:27.950Z,4.30
2023-03-13T11:35:04.937Z,2.47
2023-03-13T11:37:39.440Z,2.72
2023-03-13T11:40:12.498Z,5.10
2023-03-13T11:43:22.027Z,3.50
2023-03-13T11:46:22.381Z,4.68
2023-03-13T11:49:04.754Z,4.53
2023-03-13T11:51:53.287Z,3.47
2023-03-13T11:54:53.994Z,3.10
2023-03-13T11:57:42.170Z,5.88
2023-03-13T12:00:26.329Z,4.35
2023-03-13T12:03:15.856Z,3.33
2023-03-13T12:06:04.085Z,2.10
2023-03-13T12:08:49.416Z,2.35
2023-03-13T12:11:28.471Z,4.03
2023-03-13T12:14:03.396Z,2.13
2023-03-13T12:16:56.944Z,3.97
2023-03-13T12:19:53.086Z,2.67
2023-03-13T12:22:30.688Z,3.10
2023-03-13T12:25:06.185Z,3.13
2023-03-13T12:27:43.553Z,1.85
2023-03-13T12:30:33.797Z,2.85
2023-03-13T12:33:31.988Z,3.45
2023-03-13T12:36:26.770Z,2.25
2023-03-13T12:39:36.471Z,3.83
2023-03-13T12:42:29.352Z,2.72
2023-03-13T12:45:03.193Z,2.60
2023-03-13T12:47:36.712Z,3.25
2023-03-13T12:50:20.274Z,3.70
2023-03-13T12:52:56.204Z,2.47
2023-03-13T12:55:59.196Z,1.80
2023-03-13T12:58:53.518Z,2.17
2023-03-13T13:01:31.418Z,4.32
2023-03-13T13:04:18.091Z,3.17
2023-03-13T13:06:59.017Z,2.30
2023-03-13T13:09:36.504Z,1.13
2023-03-13T13:12:17.722Z,3.88
2023-03-13T13:14:51.596Z,2.45
2023-03-13T13:17:41.003Z,2.00
2023-03-13T13:20:45.333Z,3.83
2023-03-13T13:23:27.190Z,1.92
2023-03-13T13:26:00.686Z,1.98
2023-03-13T13:28:36.281Z,2.88
2023-03-13T13:31:42.247Z,5.28
2023-03-13T13:34:30.581Z,2.95
2023-03-13T13:36:59.918Z,3.38
2023-03-13T13:39:36.694Z,5.88
2023-03-13T13:42:42.380Z,4.07
2023-03-13T13:45:16.242Z,2.17
2023-03-13T13:47:47.738Z,2.58
2023-03-13T13:50:25.391Z,3.72
2023-03-13T13:52:52.657Z,2.78
2023-03-13T13:55:22.595Z,3.78
2023-03-13T13:57:51.036Z,5.60
2023-03-13T14:00:35.396Z,5.28
2023-03-13T14:03:02.890Z,2.97
2023-03-13T14:05:33.143Z,3.00
2023-03-13T14:08:20.742Z,5.22
2023-03-13T14:10:54.757Z,2.67
2023-03-13T14:13:26.147Z,4.25
2023-03-13T14:15:54.220Z,6.82
2023-03-13T14:18:23.343Z,2.85
2023-03-13T14:20:51.535Z,4.30
2023-03-13T14:23:29.473Z,4.88
2023-03-13T14:25:56.799Z,3.63
2023-03-13T14:28:29.309Z,2.58
2023-03-13T14:30:59.265Z,2.72
2023-03-13T14:33:27.958Z,2.80
2023-03-13T14:35:58.352Z,4.82
2023-03-13T14:38:27.726Z,3.67
2023-03-13T14:40:55.910Z,3.72
2023-03-13T14:43:43.034Z,3.50
2023-03-13T14:46:34.901Z,2.63
2023-03-13T14:49:16.803Z,4.53
2023-03-13T14:51:44.628Z,3.08
2023-03-13T14:54:55.684Z,4.65
2023-03-13T14:57:27.756Z,3.22
2023-03-13T14:59:57.370Z,2.38
2023-03-13T15:02:31.410Z,4.70
2023-03-13T15:05:05.456Z,2.90
2023-03-13T15:07:40.987Z,3.30
2023-03-13T15:10:21.076Z,3.20
2023-03-13T15:12:48.517Z,3.22
2023-03-13T15:15:16.190Z,6.22
2023-03-13T15:17:44.463Z,4.97
2023-03-13T15:20:15.027Z,5.68
2023-03-13T15:22:45.912Z,5.32
2023-03-13T15:25:22.272Z,7.97
2023-03-13T15:27:53.834Z,7.25
2023-03-13T15:30:23.856Z,5.80
2023-03-13T15:32:52.826Z,5.93
2023-03-13T15:35:31.457Z,9.40
2023-03-13T15:38:00.813Z,7.10
2023-03-13T15:40:28.889Z,4.57
2023-03-13T15:42:56.355Z,11.77
2023-03-13T15:47:57.333Z,7.15
2023-03-13T15:50:29.716Z,7.55
2023-03-13T15:53:03.272Z,5.07
2023-03-13T15:55:32.508Z,7.68
2023-03-13T15:57:59.437Z,9.10
2023-03-13T16:00:27.832Z,10.20
2023-03-13T16:02:56.164Z,14.35
2023-03-13T16:05:22.906Z,10.27
2023-03-13T16:07:49.851Z,8.02
2023-03-13T16:10:21.984Z,11.77
2023-03-13T16:12:50.305Z,11.63
2023-03-13T16:15:17.968Z,8.55
2023-03-13T16:17:45.962Z,17.67
2023-03-13T16:20:18.755Z,17.13
2023-03-13T16:22:45.777Z,28.33
2023-03-13T16:25:14.434Z,17.10
2023-03-13T16:27:42.317Z,21.63
2023-03-13T16:30:18.957Z,21.85
2023-03-13T16:32:46.525Z,22.95
2023-03-13T16:35:13.854Z,21.05
2023-03-13T16:37:40.843Z,19.80
2023-03-13T16:40:23.013Z,12.77
2023-03-13T16:42:49.803Z,12.13
2023-03-13T16:45:17.023Z,15.23
2023-03-13T16:47:45.692Z,15.38
2023-03-13T16:50:23.302Z,13.05
2023-03-13T16:52:51.955Z,20.48
2023-03-13T16:55:19.606Z,16.42
2023-03-13T16:57:46.607Z,25.30
2023-03-13T17:00:18.159Z,18.00
2023-03-13T17:02:45.273Z,9.60
2023-03-13T17:05:15.792Z,9.20
2023-03-13T17:07:48.234Z,10.18
2023-03-13T17:10:28.778Z,10.52
2023-03-13T17:12:56.120Z,12.23
2023-03-13T17:15:23.875Z,8.60
2023-03-13T17:17:52.175Z,9.68
2023-03-13T17:20:26.174Z,10.15
2023-03-13T17:22:53.505Z,10.52
2023-03-13T17:25:20.220Z,9.43
2023-03-13T17:27:47.744Z,9.45
2023-03-13T17:30:21.847Z,10.73
2023-03-13T17:32:50.513Z,13.57
2023-03-13T17:35:18.645Z,11.45
2023-03-13T17:37:45.622Z,7.93
2023-03-13T17:40:16.932Z,5.50
2023-03-13T17:42:43.874Z,10.10
2023-03-13T17:45:11.418Z,8.43
2023-03-13T17:47:38.996Z,8.63
2023-03-13T17:50:27.359Z,10.93
2023-03-13T17:52:54.589Z,6.43
2023-03-13T17:55:22.149Z,7.32
2023-03-13T17:57:49.535Z,10.80
2023-03-13T18:00:22.093Z,9.93
2023-03-13T18:02:49.578Z,7.68
2023-03-13T18:05:16.423Z,9.02
2023-03-13T18:07:46.881Z,9.80
2023-03-13T18:10:26.213Z,5.90
2023-03-13T18:12:53.919Z,8.45
2023-03-13T18:15:22.006Z,10.07
2023-03-13T18:17:49.177Z,10.20
2023-03-13T18:20:18.409Z,6.45
2023-03-13T18:22:45.662Z,7.70
2023-03-13T18:25:13.589Z,10.00
2023-03-13T18:27:40.985Z,17.75
2023-03-13T18:30:23.390Z,12.38
2023-03-13T18:32:50.747Z,10.20
2023-03-13T18:35:18.244Z,13.55
2023-03-13T18:37:47.514Z,10.32
2023-03-13T18:40:19.261Z,15.90
2023-03-13T18:42:47.427Z,15.55
2023-03-13T18:45:31.715Z,22.73
2023-03-13T18:47:58.955Z,22.92
2023-03-13T18:50:29.149Z,15.55
2023-03-13T18:52:57.445Z,20.42
2023-03-13T18:55:26.879Z,20.38
2023-03-13T18:57:55.112Z,17.55
2023-03-13T19:00:27.818Z,17.98
2023-03-13T19:02:54.707Z,12.65
2023-03-13T19:05:24.996Z,12.48
2023-03-13T19:07:52.060Z,18.27
2023-03-13T19:10:20.741Z,14.15
2023-03-13T19:12:47.971Z,15.55
2023-03-13T19:15:15.167Z,13.60
2023-03-13T19:17:42.515Z,15.30
2023-03-13T19:20:21.485Z,8.52
2023-03-13T19:22:48.422Z,11.45
2023-03-13T19:25:18.619Z,12.77
2023-03-13T19:27:46.183Z,13.15
2023-03-13T19:30:21.852Z,9.25
2023-03-13T19:32:49.611Z,8.30
2023-03-13T19:35:18.956Z,13.13
2023-03-13T19:37:46.455Z,15.18
2023-03-13T19:40:20.049Z,11.45
2023-03-13T19:42:46.830Z,12.40
2023-03-13T19:45:16.825Z,14.25
2023-03-13T19:47:44.860Z,12.05
2023-03-13T19:50:28.533Z,10.93
2023-03-13T19:52:55.409Z,14.07
2023-03-13T19:55:22.327Z,11.05
2023-03-13T19:58:00.484Z,10.20
2023-03-13T20:00:28.147Z,12.32
2023-03-13T20:02:56.288Z,15.13
2023-03-13T20:05:24.135Z,14.18
2023-03-13T20:08:07.846Z,8.27
2023-03-13T20:10:53.957Z,10.95
2023-03-13T20:13:21.103Z,8.70
2023-03-13T20:15:50.994Z,7.80
2023-03-13T20:18:21.055Z,7.50
2023-03-13T20:20:49.035Z,5.18
2023-03-13T20:23:17.688Z,5.65
2023-03-13T20:25:44.854Z,5.55
2023-03-13T20:28:12.111Z,9.85
2023-03-13T20:30:42.812Z,8.98
2023-03-13T20:33:10.633Z,10.50
2023-03-13T20:35:42.489Z,15.30
2023-03-13T20:38:09.780Z,8.30
2023-03-13T20:40:36.951Z,14.60
2023-03-13T20:43:06.715Z,10.95
2023-03-13T20:45:34.898Z,11.65
2023-03-13T20:48:09.668Z,9.07
2023-03-13T20:50:36.867Z,11.00
2023-03-13T20:53:07.041Z,10.32
2023-03-13T20:55:37.130Z,8.82
2023-03-13T20:58:04.181Z,9.25
2023-03-13T21:00:34.449Z,6.00
2023-03-13T21:03:07.058Z,4.70
2023-03-13T21:05:37.794Z,6.70
2023-03-13T21:08:04.930Z,6.35
2023-03-13T21:10:32.569Z,7.78
2023-03-13T21:13:02.210Z,10.45
2023-03-13T21:16:09.279Z,7.32
2023-03-13T21:18:36.446Z,6.28
2023-03-13T21:21:10.126Z,6.78
2023-03-13T21:23:38.762Z,4.22
2023-03-13T21:26:05.797Z,5.60
2023-03-13T21:28:35.929Z,4.82
2023-03-13T21:31:11.836Z,6.50
2023-03-13T21:33:46.765Z,5.15
2023-03-13T21:36:15.772Z,6.85
2023-03-13T21:38:43.802Z,4.78
2023-03-13T21:41:13.205Z,6.57
2023-03-13T21:43:46.940Z,5.75
2023-03-13T21:49:01.801Z,9.30
2023-03-13T21:51:29.464Z,17.30
2023-03-13T21:54:02.791Z,16.77
2023-03-13T21:56:32.121Z,10.23
2023-03-13T21:59:00.837Z,9.75
2023-03-13T22:01:35.160Z,8.32
2023-03-13T22:04:05.652Z,9.02
2023-03-13T22:06:32.728Z,11.30
2023-03-13T22:09:00.558Z,8.40
2023-03-13T22:11:27.699Z,9.32
2023-03-13T22:13:55.101Z,14.38
2023-03-13T22:16:25.378Z,10.02
2023-03-13T22:18:53.038Z,8.98
2023-03-13T22:21:23.007Z,6.70
2023-03-13T22:23:52.921Z,7.90
2023-03-13T22:26:24.928Z,5.55
2023-03-13T22:28:54.657Z,6.57
2023-03-13T22:31:22.203Z,6.10
2023-03-13T22:33:52.084Z,5.55
2023-03-13T22:36:20.773Z,6.22
2023-03-13T22:38:50.884Z,8.38
2023-03-13T22:41:19.149Z,5.60
2023-03-13T22:43:46.944Z,6.97
2023-03-13T22:46:18.855Z,6.05
2023-03-13T22:48:45.939Z,5.47
2023-03-13T22:51:15.197Z,7.53
2023-03-13T22:53:44.666Z,6.40
2023-03-13T22:56:14.019Z,4.22
2023-03-13T22:58:42.485Z,4.50
2023-03-13T23:01:16.059Z,5.43
2023-03-13T23:03:43.798Z,5.15
2023-03-13T23:06:25.654Z,5.88
2023-03-13T23:08:53.251Z,5.07
2023-03-13T23:11:21.106Z,11.77
2023-03-13T23:13:48.659Z,10.00
2023-03-13T23:16:17.091Z,7.32
2023-03-13T23:18:43.918Z,11.30
2023-03-13T23:21:13.346Z,10.35
2023-03-13T23:23:40.443Z,8.82
2023-03-13T23:26:11.741Z,9.05
2023-03-13T23:28:40.108Z,9.07
2023-03-13T23:31:15.901Z,11.43
2023-03-13T23:33:43.385Z,13.27
2023-03-13T23:36:16.275Z,9.60
2023-03-13T23:38:43.397Z,8.65
2023-03-13T23:41:14.546Z,11.00
2023-03-13T23:43:41.756Z,10.27
2023-03-13T23:46:19.708Z,11.10
2023-03-13T23:48:46.950Z,11.20
2023-03-13T23:51:13.862Z,11.60
2023-03-13T23:53:42.773Z,11.90
2023-03-13T23:56:10.506Z,9.23
2023-03-13T23:58:37.303Z,9.98
